Brunswick, ME

7:05 AM EDT on August 05, 2015 (GMT -0400)
Brunswick Police Department | | Change Station
CLOSE
Current Station
Personal Weather Station
Location: Brunswick, ME
Elevation: 89 ft
Nearby Weather Stations

Elev 89 ft 43.91 °N, 69.98 °W | Updated 5 minutes ago

Mostly Cloudy
Mostly Cloudy
61.4 °F
Feels Like 61.4 °F
N
1.0
Wind Variable Wind from ENE
Gusts 3.0 mph

Today
High -- | Low -- °F
--% Chance of Precip.
Yesterday
High -- | Low -- °F
Precip. -- in
5:32 AM 7:58 PM
Waning Gibbous, 68% visible
Pressure 29.85 in
Visibility 1.8 miles
Clouds Overcast 100 ft
Dew Point 60 °F
Humidity 97%
Rainfall 0.00 in
Snow Depth Not available.
UV 0 out of 12
Pollen 4.90 out of 12
Air Quality Not available.
Flu Activity Not available.
SPECI KIWI 051102Z AUTO 00000KT 1 3/4SM BR OVC001 15/14 A2985 RMK AO2 VIS 1V5 T01500144

More Conditions Fewer Conditions

Pressure 29.85 in
Visibility 1.8 miles
Clouds Overcast 100 ft
Dew Point 60 °F
Humidity 97%
Rainfall 0.00 in
Snow Depth Not available.
UV 0 out of 12
Pollen 4.90 out of 12
Air Quality Not available.
Flu Activity Not available.
SPECI KIWI 051102Z AUTO 00000KT 1 3/4SM BR OVC001 15/14 A2985 RMK AO2 VIS 1V5 T01500144

More Conditions Fewer Conditions

10-Day Weather Forecast

×

Almanac

Astronomy

Aug. 05, 2015 Rise Set
Actual Time
Civil Twilight
Nautical Twilight
Astronomical Twilight
Moon
Length of Visible Light
Length of Day
Tomorrow will be .
, % of the Moon is Illuminated

Today's Extremes

State Highs State Lows

Community

WunderPhotos

Upload Photos

1,844,125 photos uploaded!

WunderBlogs® & News

Nearby

Air Quality

  Air Quality AQ Index Pollutant
Not available.

Snow Depth

Station Depth Elevation

Earthquake Activity

City Distance Mag. Time & Date
Minimum magnitude displayed is 2.5.

Coastal Water Temperatures

Place Temperature

Stations

Nearby Weather Stations

Station Location Temp. Windchill Dew Point Humidity Wind Precip. Elev Updated Type